Lake Charles Regional Airport Lake Charles US
ICAO: KLCH
IATA: LCH
Category: Medium
Scheduled Services: Yes

Elevation: 15 ft
TransAlt. 18000 ft.

Airport Communications:
APP/DEP:119.35
ATIS:118.75
CLNC DEL:126.25
CTAF:120.7
GND:121.8
DE RIDDER RDO:122.3
TWR:120.7
UNICOM:122.95

KLCH Zoom In..

If you have problems with the map follow the link
https://www.worldairports.se/pages/airport.php?
ICAO=KLCH

Runways:

(A) RW 05 length 5200 ft width 100 ft
---- / hdg 49

(B) RW 15 length 6500 ft width 150 ft
ILS 109.10 / hdg 152

(C) RW 23 length 5200 ft width 100 ft
---- / hdg 229

(D) RW 33 length 6500 ft width 150 ft
---- / hdg 332

Location; KLCH
Day. 16 / Time. 02.53 Zulu
* Altimeter: 29.89
* Temperature: 22° c. 71.6°f.
* Wind from: 160° Speed 12 kn.
Dewpoint: 21° c.
Visibility: 10 Statute Miles.
Clouds: Few 4000 ft.

KLCH 160253Z 16012KT 10SM FEW040 22/21 A2989 RMK AO2 SLP128 T02170206 51004


Wind From 160°
Speed 12 kn.

 
 
jpsmedia worldairports.se 2019   terms of use